Nesher, Israel
Current Conditions -  °F | °C
As of 2:50 PM on Thursday 23 Oct 2014 (Local Time) from LLHA Reporting Station
Scattered Clouds Scattered Clouds  
Wind Chill: 77°   Ceiling: Unl
Heat Index: 79°   Visibility: 6mi
Dew Point: 59°   Wind: 9mph
Humidity: 54%   Direction: 300°WNW
Pressure: 29.97"   Gusts: NA
Location:  32.75°N, 35.06°E
Report Text: LLHA 231250Z 30008KT 260V330 9999 SCT030 25/15 Q1015
Loading
Personal Weather Stations






























Interactive Weather Map
Tropical Storm Tracking
New forecast layout! Learn more

10-Day Weather Forecast

Advertisements
Track Severe Weather on mobile